createdAt,value
2017-04-13T00:00:32.282Z,35.88
2017-04-13T00:01:41.576Z,35.88
2017-04-13T00:02:51.487Z,35.96
2017-04-13T00:04:01.838Z,35.77
2017-04-13T00:05:11.443Z,35.78
2017-04-13T00:06:21.656Z,35.77
2017-04-13T00:07:31.560Z,35.77
2017-04-13T00:08:41.198Z,35.77
2017-04-13T00:09:51.577Z,35.78
2017-04-13T00:11:02.001Z,35.86
2017-04-13T00:12:12.209Z,35.96
2017-04-13T00:13:22.129Z,35.77
2017-04-13T00:14:32.033Z,35.77
2017-04-13T00:15:42.502Z,35.86
2017-04-13T00:16:52.115Z,35.96
2017-04-13T00:18:02.018Z,35.77
2017-04-13T00:19:12.239Z,35.77
2017-04-13T00:20:21.842Z,35.86
2017-04-13T00:21:32.365Z,35.77
2017-04-13T00:22:42.275Z,35.86
2017-04-13T00:23:52.491Z,35.48
2017-04-13T00:25:02.387Z,35.96
2017-04-13T00:26:12.598Z,35.58
2017-04-13T00:27:22.967Z,35.98
2017-04-13T00:28:33.200Z,35.86
2017-04-13T00:29:42.823Z,35.96
2017-04-13T00:30:53.052Z,35.88
2017-04-13T00:32:02.983Z,35.58
2017-04-13T00:33:12.896Z,35.77
2017-04-13T00:34:22.821Z,35.86
2017-04-13T00:35:32.431Z,35.77
2017-04-13T00:36:42.348Z,35.86
2017-04-13T00:37:52.260Z,35.86
2017-04-13T00:39:02.429Z,35.86
2017-04-13T00:40:12.032Z,35.77
2017-04-13T00:41:22.240Z,35.77
2017-04-13T00:42:31.853Z,35.86
2017-04-13T00:43:42.069Z,35.96
2017-04-13T00:44:52.548Z,35.58
2017-04-13T00:46:02.155Z,35.96
2017-04-13T00:47:12.372Z,35.77
2017-04-13T00:48:21.978Z,35.77
2017-04-13T00:49:31.895Z,35.86
2017-04-13T00:50:41.496Z,35.77
2017-04-13T00:51:51.710Z,35.86
2017-04-13T00:53:01.926Z,35.67
2017-04-13T00:54:11.835Z,35.77
2017-04-13T00:55:21.466Z,35.77
2017-04-13T00:56:31.741Z,35.67
2017-04-13T00:57:41.655Z,35.86
2017-04-13T00:58:51.870Z,35.86
2017-04-13T01:00:02.107Z,35.86
2017-04-13T01:01:12.313Z,35.77
2017-04-13T01:02:22.525Z,35.86
2017-04-13T01:03:32.729Z,35.67
2017-04-13T01:04:42.626Z,35.67
2017-04-13T01:05:51.930Z,35.86
2017-04-13T01:07:01.857Z,35.77
2017-04-13T01:08:11.904Z,35.77
2017-04-13T01:09:21.867Z,35.67
2017-04-13T01:10:31.465Z,35.96
2017-04-13T01:11:41.381Z,35.77
2017-04-13T01:12:51.284Z,35.77
2017-04-13T01:14:01.547Z,35.96
2017-04-13T01:15:11.155Z,35.86
2017-04-13T01:16:20.769Z,35.77
2017-04-13T01:17:31.015Z,35.77
2017-04-13T01:18:40.624Z,35.77
2017-04-13T01:19:50.672Z,35.67
2017-04-13T01:21:00.271Z,35.86
2017-04-13T01:22:10.558Z,35.96
2017-04-13T01:23:20.468Z,35.96
2017-04-13T01:24:30.390Z,35.77
2017-04-13T01:25:40.943Z,35.77
2017-04-13T01:26:50.855Z,35.86
2017-04-13T01:28:01.077Z,35.77
2017-04-13T01:29:10.998Z,35.77
2017-04-13T01:30:20.614Z,35.86
2017-04-13T01:31:30.522Z,36.06
2017-04-13T01:32:39.822Z,35.67
2017-04-13T01:33:49.720Z,35.77
2017-04-13T01:35:00.146Z,35.77
2017-04-13T01:36:10.363Z,35.86
2017-04-13T01:37:19.923Z,35.77
2017-04-13T01:38:29.838Z,35.77
2017-04-13T01:39:40.058Z,35.77
2017-04-13T01:40:49.356Z,35.77
2017-04-13T01:41:59.268Z,35.77
2017-04-13T01:43:09.778Z,35.86
2017-04-13T01:44:19.718Z,35.77
2017-04-13T01:45:29.634Z,35.77
2017-04-13T01:46:39.568Z,35.77
2017-04-13T01:47:49.489Z,35.77
2017-04-13T01:48:59.545Z,35.77
2017-04-13T01:50:09.446Z,35.86
2017-04-13T01:51:19.685Z,35.96
2017-04-13T01:52:29.597Z,35.77
2017-04-13T01:53:39.511Z,35.96
2017-04-13T01:54:49.210Z,35.77
2017-04-13T01:55:59.122Z,35.77
2017-04-13T01:57:09.331Z,35.77
2017-04-13T01:58:19.238Z,35.77
2017-04-13T01:59:29.455Z,35.77
2017-04-13T02:00:39.524Z,35.77
2017-04-13T02:01:49.134Z,35.77
2017-04-13T02:02:58.724Z,35.67
2017-04-13T02:04:08.626Z,35.86
2017-04-13T02:05:17.933Z,35.86
2017-04-13T02:06:27.392Z,35.67
2017-04-13T02:07:37.617Z,35.86
2017-04-13T02:08:47.519Z,35.67
2017-04-13T02:09:57.796Z,35.77
2017-04-13T02:11:07.702Z,35.77
2017-04-13T02:12:17.724Z,35.96
2017-04-13T02:13:27.954Z,35.77
2017-04-13T02:14:37.853Z,35.77
2017-04-13T02:15:48.084Z,35.77
2017-04-13T02:16:58.330Z,35.77
2017-04-13T02:18:08.808Z,35.77
2017-04-13T02:19:18.110Z,35.77
2017-04-13T02:20:28.326Z,35.77
2017-04-13T02:21:38.223Z,35.86
2017-04-13T02:22:48.129Z,35.96
2017-04-13T02:23:58.389Z,35.58
2017-04-13T02:25:08.004Z,35.77
2017-04-13T02:26:17.602Z,35.86
2017-04-13T02:27:27.202Z,35.77
2017-04-13T02:28:37.111Z,35.86
2017-04-13T02:29:47.370Z,35.77
2017-04-13T02:30:57.279Z,35.77
2017-04-13T02:32:06.572Z,35.67
2017-04-13T02:33:16.170Z,35.67
2017-04-13T02:34:26.068Z,35.58
2017-04-13T02:35:36.438Z,35.96
2017-04-13T02:36:45.731Z,35.77
2017-04-13T02:37:55.635Z,35.77
2017-04-13T02:39:05.534Z,35.58
2017-04-13T02:40:15.750Z,35.86
2017-04-13T02:41:26.067Z,35.77
2017-04-13T02:42:36.280Z,35.67
2017-04-13T02:43:45.587Z,35.67
2017-04-13T02:44:55.809Z,35.77
2017-04-13T02:46:05.416Z,35.77
2017-04-13T02:47:15.494Z,35.67
2017-04-13T02:48:25.722Z,35.77
2017-04-13T02:49:35.327Z,35.67
2017-04-13T02:50:45.236Z,35.67
2017-04-13T02:51:54.851Z,35.67
2017-04-13T02:53:04.857Z,35.67
2017-04-13T02:54:15.063Z,35.58
2017-04-13T02:55:24.983Z,35.77
2017-04-13T02:56:35.200Z,35.58
2017-04-13T02:57:45.417Z,35.48
2017-04-13T02:58:55.941Z,35.48
2017-04-13T03:00:05.553Z,35.48
2017-04-13T03:01:14.552Z,35.48
2017-04-13T03:02:24.469Z,35.67
2017-04-13T03:03:34.374Z,35.77
2017-04-13T03:04:44.324Z,35.77
2017-04-13T03:05:54.239Z,35.48
2017-04-13T03:07:04.456Z,35.58
2017-04-13T03:08:14.362Z,35.77
2017-04-13T03:09:24.579Z,35.58
2017-04-13T03:10:34.584Z,35.48
2017-04-13T03:11:44.497Z,35.67
2017-04-13T03:12:54.717Z,35.67
2017-04-13T03:14:04.633Z,35.67
2017-04-13T03:15:14.232Z,35.67
2017-04-13T03:16:24.288Z,35.48
2017-04-13T03:17:34.195Z,35.67
2017-04-13T03:18:43.839Z,35.58
2017-04-13T03:19:53.142Z,35.67
2017-04-13T03:21:03.044Z,35.67
2017-04-13T03:22:13.205Z,35.67
2017-04-13T03:23:23.123Z,35.48
2017-04-13T03:24:33.031Z,35.48
2017-04-13T03:25:42.943Z,35.77
2017-04-13T03:26:52.563Z,35.77
2017-04-13T03:28:02.412Z,35.77
2017-04-13T03:29:12.642Z,35.48
2017-04-13T03:30:22.855Z,35.48
2017-04-13T03:31:33.128Z,35.67
2017-04-13T03:32:42.725Z,35.77
2017-04-13T03:33:52.271Z,35.67
2017-04-13T03:35:01.894Z,35.38
2017-04-13T03:36:12.121Z,35.67
2017-04-13T03:37:21.727Z,35.67
2017-04-13T03:38:31.942Z,35.67
2017-04-13T03:39:41.699Z,35.48
2017-04-13T03:40:51.719Z,35.77
2017-04-13T03:42:01.627Z,35.67
2017-04-13T03:43:11.827Z,35.67
2017-04-13T03:44:22.063Z,35.58
2017-04-13T03:45:32.185Z,35.48
2017-04-13T03:46:42.090Z,35.77
2017-04-13T03:47:52.006Z,35.48
2017-04-13T03:49:33.384Z,35.48
2017-04-13T03:50:43.140Z,35.77
2017-04-13T03:51:53.052Z,35.58
2017-04-13T03:53:03.271Z,35.48
2017-04-13T03:54:13.187Z,35.77
2017-04-13T03:55:22.790Z,35.48
2017-04-13T03:56:32.865Z,35.48
2017-04-13T03:57:42.518Z,35.48
2017-04-13T03:58:52.433Z,35.48
2017-04-13T04:00:02.663Z,35.58
2017-04-13T04:01:12.888Z,35.67
2017-04-13T04:02:23.279Z,35.77
2017-04-13T04:03:33.500Z,35.67
2017-04-13T04:04:43.123Z,35.48
2017-04-13T04:05:53.074Z,35.58
2017-04-13T04:07:03.285Z,35.48
2017-04-13T04:08:13.034Z,35.75
2017-04-13T04:09:23.229Z,35.48
2017-04-13T04:10:32.836Z,35.48
2017-04-13T04:11:42.448Z,35.38
2017-04-13T04:12:52.407Z,35.46
2017-04-13T04:14:02.416Z,35.75
2017-04-13T04:15:12.318Z,35.56
2017-04-13T04:16:21.929Z,35.58
2017-04-13T04:17:31.535Z,35.48
2017-04-13T04:18:41.746Z,35.48
2017-04-13T04:19:51.800Z,35.58
2017-04-13T04:21:01.394Z,35.67
2017-04-13T04:22:11.616Z,35.56
2017-04-13T04:23:21.210Z,35.56
2017-04-13T04:24:31.115Z,35.56
2017-04-13T04:25:40.861Z,35.86
2017-04-13T04:26:51.077Z,35.58
2017-04-13T04:28:00.981Z,35.56
2017-04-13T04:29:10.283Z,35.58
2017-04-13T04:30:19.890Z,35.58
2017-04-13T04:31:29.486Z,35.46
2017-04-13T04:32:39.696Z,35.85
2017-04-13T04:33:49.022Z,35.56
2017-04-13T04:34:58.929Z,35.48
2017-04-13T04:36:07.914Z,35.58
2017-04-13T04:37:18.233Z,35.67
2017-04-13T04:38:28.147Z,35.58
2017-04-13T04:39:38.052Z,35.48
2017-04-13T04:40:47.954Z,35.38
2017-04-13T04:41:57.863Z,35.38
2017-04-13T04:43:07.976Z,35.48
2017-04-13T04:44:17.577Z,35.48
2017-04-13T04:45:27.481Z,35.28
2017-04-13T04:46:37.703Z,35.1
2017-04-13T04:47:47.334Z,35.19
2017-04-13T04:48:57.716Z,35.28
2017-04-13T04:50:07.365Z,35
2017-04-13T04:51:17.277Z,35.19
2017-04-13T04:52:27.180Z,35.28
2017-04-13T04:53:37.104Z,35.19
2017-04-13T04:54:47.461Z,35
2017-04-13T04:55:57.685Z,35.19
2017-04-13T04:57:07.626Z,35.1
2017-04-13T04:58:17.838Z,35.19
2017-04-13T04:59:27.428Z,35.1
2017-04-13T05:00:37.185Z,35.21
2017-04-13T05:01:47.129Z,34.63
2017-04-13T05:02:57.046Z,34.44
2017-04-13T05:04:06.984Z,34.44
2017-04-13T05:05:16.915Z,34.53
2017-04-13T05:06:27.271Z,34.34
2017-04-13T05:07:37.179Z,34.24
2017-04-13T05:08:47.075Z,34.44
2017-04-13T05:09:57.283Z,34.55
2017-04-13T05:11:06.943Z,34.26
2017-04-13T05:12:17.008Z,34.26
2017-04-13T05:13:27.007Z,34.26
2017-04-13T05:14:36.620Z,34.36
2017-04-13T05:15:46.545Z,34.55
2017-04-13T05:16:56.496Z,34.06
2017-04-13T05:18:06.568Z,34.16
2017-04-13T05:19:16.483Z,34.26
2017-04-13T05:20:26.413Z,34.18
2017-04-13T05:21:36.338Z,33.89
2017-04-13T05:22:46.593Z,33.7
2017-04-13T05:23:56.670Z,33.5
2017-04-13T05:25:06.889Z,33.5
2017-04-13T05:26:16.515Z,33.8
2017-04-13T05:27:26.753Z,33.5
2017-04-13T05:28:36.067Z,33.31
2017-04-13T05:29:46.446Z,33.33
2017-04-13T05:30:56.667Z,33.33
2017-04-13T05:32:06.928Z,33.23
2017-04-13T05:33:16.641Z,33.23
2017-04-13T05:34:26.256Z,33.14
2017-04-13T05:35:36.113Z,32.94
2017-04-13T05:36:45.734Z,32.84
2017-04-13T05:37:55.640Z,33.15
2017-04-13T05:39:05.544Z,32.96
2017-04-13T05:40:15.469Z,32.47
2017-04-13T05:41:25.842Z,32.67
2017-04-13T05:42:35.747Z,32.76
2017-04-13T05:43:45.664Z,32.76
2017-04-13T05:44:55.261Z,32.76
2017-04-13T05:46:04.868Z,32.67
2017-04-13T05:47:14.617Z,32.67
2017-04-13T05:48:24.273Z,32.67
2017-04-13T05:49:34.183Z,32.67
2017-04-13T05:50:43.785Z,32.76
2017-04-13T05:51:53.703Z,32.67
2017-04-13T05:53:03.750Z,32.49
2017-04-13T05:54:13.653Z,32.39
2017-04-13T05:55:23.564Z,32.49
2017-04-13T05:56:33.780Z,32.49
2017-04-13T05:57:43.693Z,32.68
2017-04-13T05:58:54.065Z,32.49
2017-04-13T06:00:04.039Z,32.68
2017-04-13T06:01:13.653Z,32.49
2017-04-13T06:02:23.579Z,32.78
2017-04-13T06:03:32.879Z,32.68
2017-04-13T06:04:42.632Z,32.68
2017-04-13T06:05:52.863Z,32.68
2017-04-13T06:07:02.799Z,33.07
2017-04-13T06:08:12.393Z,33.07
2017-04-13T06:09:22.605Z,33.07
2017-04-13T06:10:32.670Z,33.17
2017-04-13T06:11:42.888Z,32.97
2017-04-13T06:12:53.097Z,32.97
2017-04-13T06:14:03.364Z,32.87
2017-04-13T06:15:13.574Z,32.87
2017-04-13T06:16:23.336Z,32.97
2017-04-13T06:17:33.239Z,32.97
2017-04-13T06:18:43.467Z,33.07
2017-04-13T06:19:53.112Z,32.97
2017-04-13T06:21:02.719Z,32.87
2017-04-13T06:22:13.103Z,33.17
2017-04-13T06:23:23.006Z,33.07
2017-04-13T06:24:32.614Z,33.17
2017-04-13T06:25:42.545Z,33.07
2017-04-13T06:26:52.780Z,33.55
2017-04-13T06:28:03.170Z,33.55
2017-04-13T06:29:13.093Z,33.36
2017-04-13T06:30:23.028Z,33.36
2017-04-13T06:31:32.948Z,33.55
2017-04-13T06:32:43.226Z,33.54
2017-04-13T06:33:53.277Z,33.83
2017-04-13T06:35:03.499Z,33.63
2017-04-13T06:36:12.801Z,33.54
2017-04-13T06:37:22.714Z,33.73
2017-04-13T06:38:32.946Z,33.73
2017-04-13T06:39:42.968Z,33.83
2017-04-13T06:40:52.581Z,33.92
2017-04-13T06:42:02.813Z,33.73
2017-04-13T06:43:12.744Z,33.63
2017-04-13T06:44:22.670Z,33.63
2017-04-13T06:45:32.365Z,33.54
2017-04-13T06:46:41.662Z,33.83
2017-04-13T06:47:51.875Z,33.36
2017-04-13T06:49:02.111Z,33.75
2017-04-13T06:50:11.735Z,33.75
2017-04-13T06:51:21.754Z,33.65
2017-04-13T06:52:31.670Z,33.55
2017-04-13T06:53:41.013Z,33.83
2017-04-13T06:54:51.235Z,33.63
2017-04-13T06:56:01.137Z,33.73
2017-04-13T06:57:11.200Z,33.75
2017-04-13T06:58:21.129Z,33.83
2017-04-13T06:59:31.397Z,33.73
2017-04-13T07:00:41.618Z,33.92
2017-04-13T07:01:51.844Z,33.83
2017-04-13T07:03:01.847Z,34.02
2017-04-13T07:04:11.155Z,34.12
2017-04-13T07:05:20.801Z,34.12
2017-04-13T07:06:30.703Z,34.12
2017-04-13T07:07:40.316Z,34.12
2017-04-13T07:08:50.686Z,34.02
2017-04-13T07:10:00.919Z,33.83
2017-04-13T07:11:11.153Z,34.02
2017-04-13T07:12:20.749Z,33.92
2017-04-13T07:13:30.969Z,33.84
2017-04-13T07:14:41.702Z,33.73
2017-04-13T07:15:51.926Z,33.75
2017-04-13T07:17:02.136Z,33.94
2017-04-13T07:18:11.736Z,33.75
2017-04-13T07:19:21.655Z,33.83
2017-04-13T07:20:31.713Z,34.02
2017-04-13T07:21:41.324Z,34.31
2017-04-13T07:22:51.535Z,34.21
2017-04-13T07:24:01.147Z,34.21
2017-04-13T07:25:11.361Z,33.92
2017-04-13T07:26:21.424Z,34.5
2017-04-13T07:27:31.041Z,34.5
2017-04-13T07:28:40.927Z,34.41
2017-04-13T07:29:50.676Z,34.31
2017-04-13T07:31:00.278Z,34.31
2017-04-13T07:32:09.734Z,34.21
2017-04-13T07:33:19.350Z,34.21
2017-04-13T07:34:29.186Z,34.6
2017-04-13T07:35:38.827Z,34.31
2017-04-13T07:36:47.861Z,34.02
2017-04-13T07:37:57.907Z,34.5
2017-04-13T07:39:07.530Z,34.6
2017-04-13T07:40:17.455Z,34.48
2017-04-13T07:41:27.367Z,34.2
2017-04-13T07:42:37.601Z,34.58
2017-04-13T07:43:46.736Z,34.79
2017-04-13T07:44:56.657Z,34.29
2017-04-13T07:46:06.252Z,34.29
2017-04-13T07:47:16.482Z,34.48
2017-04-13T07:48:26.106Z,34.48
2017-04-13T07:49:35.874Z,34.48
2017-04-13T07:50:45.808Z,34.68
2017-04-13T07:51:55.726Z,34.58
2017-04-13T07:53:05.665Z,34.78
2017-04-13T07:54:15.595Z,35.36
2017-04-13T07:55:26.006Z,35.26
2017-04-13T07:56:35.634Z,35.16
2017-04-13T07:57:45.905Z,35.26
2017-04-13T07:58:55.530Z,35.26
2017-04-13T08:00:05.744Z,35.24
2017-04-13T08:01:15.823Z,35.16
2017-04-13T08:02:25.433Z,35.16
2017-04-13T08:03:35.054Z,35.05
2017-04-13T08:04:44.359Z,35.14
2017-04-13T08:05:53.997Z,35.24
2017-04-13T08:07:04.090Z,35.14
2017-04-13T08:08:13.746Z,35.24
2017-04-13T08:09:23.373Z,35.14
2017-04-13T08:10:33.597Z,35.05
2017-04-13T08:11:43.526Z,35.05
2017-04-13T08:12:53.567Z,35.05
2017-04-13T08:14:03.548Z,35.05
2017-04-13T08:15:13.184Z,35.05
2017-04-13T08:16:22.487Z,34.95
2017-04-13T08:17:32.102Z,34.95
2017-04-13T08:18:41.898Z,35.14
2017-04-13T08:19:51.583Z,35.14
2017-04-13T08:21:01.303Z,35.14
2017-04-13T08:22:11.568Z,35.14
2017-04-13T08:23:21.220Z,35.24
2017-04-13T08:24:31.260Z,35.05
2017-04-13T08:25:40.891Z,35.24
2017-04-13T08:26:50.558Z,35.34
2017-04-13T08:28:00.290Z,35.24
2017-04-13T08:29:10.223Z,35.24
2017-04-13T08:30:20.614Z,35.14
2017-04-13T08:31:30.605Z,35.24
2017-04-13T08:32:40.573Z,35.42
2017-04-13T08:33:50.198Z,35.14
2017-04-13T08:34:59.522Z,35.44
2017-04-13T08:36:09.604Z,35.14
2017-04-13T08:37:19.544Z,35.14
2017-04-13T08:38:29.830Z,35.05
2017-04-13T08:39:39.763Z,35.24
2017-04-13T08:40:49.387Z,35.24
2017-04-13T08:41:58.846Z,35.24
2017-04-13T08:43:09.073Z,35.34
2017-04-13T08:44:18.992Z,35.34
2017-04-13T08:45:28.587Z,35.34
2017-04-13T08:46:37.904Z,35.05
2017-04-13T08:47:47.355Z,35.34
2017-04-13T08:48:56.721Z,35.24
2017-04-13T08:50:06.341Z,35.24
2017-04-13T08:51:15.634Z,35.05
2017-04-13T08:52:25.869Z,35.14
2017-04-13T08:53:35.633Z,35.13
2017-04-13T08:54:45.251Z,35.24
2017-04-13T08:55:55.148Z,35.05
2017-04-13T08:57:04.762Z,35.14
2017-04-13T08:58:14.370Z,35.05
2017-04-13T08:59:24.155Z,35.24
2017-04-13T09:00:33.752Z,35.22
2017-04-13T09:01:43.043Z,35.24
2017-04-13T09:02:53.276Z,35.32
2017-04-13T09:04:02.883Z,35.13
2017-04-13T09:05:13.065Z,35.22
2017-04-13T09:06:22.704Z,35.32
2017-04-13T09:07:31.700Z,35.32
2017-04-13T09:08:41.305Z,35.22
2017-04-13T09:09:50.908Z,35.22
2017-04-13T09:11:00.672Z,35.52
2017-04-13T09:12:09.969Z,35.22
2017-04-13T09:13:20.200Z,35.42
2017-04-13T09:14:30.123Z,35.32
2017-04-13T09:15:40.043Z,35.13
2017-04-13T09:16:49.786Z,35.03
2017-04-13T09:17:59.430Z,35.22
2017-04-13T09:19:09.348Z,35.22
2017-04-13T09:20:19.567Z,35.32
2017-04-13T09:21:29.787Z,35.13
2017-04-13T09:22:39.865Z,35.13
2017-04-13T09:23:49.484Z,35.05
2017-04-13T09:24:59.095Z,35.14
2017-04-13T09:26:08.697Z,35.05
2017-04-13T09:27:18.344Z,35.24
2017-04-13T09:28:28.422Z,35.24
2017-04-13T09:29:38.636Z,34.86
2017-04-13T09:30:48.555Z,34.86
2017-04-13T09:31:58.484Z,34.86
2017-04-13T09:33:08.766Z,34.76
2017-04-13T09:34:18.527Z,34.66
2017-04-13T09:35:28.441Z,34.56
2017-04-13T09:36:38.343Z,34.86
2017-04-13T09:37:47.947Z,34.76
2017-04-13T09:38:57.874Z,34.86
2017-04-13T09:40:07.322Z,35.14
2017-04-13T09:41:16.938Z,34.95
2017-04-13T09:42:26.852Z,35.14
2017-04-13T09:43:36.168Z,35.24
2017-04-13T09:44:46.462Z,35.03
2017-04-13T09:45:55.912Z,35.14
2017-04-13T09:47:05.818Z,35.14
2017-04-13T09:48:16.048Z,35.05
2017-04-13T09:49:25.671Z,35.24
2017-04-13T09:50:35.312Z,35.05
2017-04-13T09:51:45.070Z,35.22
2017-04-13T09:52:54.677Z,35.13
2017-04-13T09:54:04.299Z,35.22
2017-04-13T09:55:14.526Z,35.13
2017-04-13T09:56:24.739Z,35.13
2017-04-13T09:57:34.812Z,35.22
2017-04-13T09:58:44.425Z,35.03
2017-04-13T09:59:53.715Z,35.13
2017-04-13T10:01:03.618Z,35.03
2017-04-13T10:02:12.921Z,35.32
2017-04-13T10:03:22.975Z,35.32
2017-04-13T10:04:33.199Z,35.32
2017-04-13T10:05:43.112Z,35.22
2017-04-13T10:06:53.041Z,35.03
2017-04-13T10:08:02.968Z,35.13
2017-04-13T10:09:13.286Z,35.22
2017-04-13T10:10:22.908Z,35.13
2017-04-13T10:11:32.514Z,35.13
2017-04-13T10:12:42.128Z,35.22
2017-04-13T10:13:51.115Z,34.94
2017-04-13T10:15:01.143Z,35.03
2017-04-13T10:16:11.064Z,35.03
2017-04-13T10:17:20.972Z,35.22
2017-04-13T10:18:30.907Z,35.13
2017-04-13T10:19:41.168Z,35.13
2017-04-13T10:20:50.609Z,35.22
2017-04-13T10:22:00.536Z,35.13
2017-04-13T10:23:10.453Z,35.13
2017-04-13T10:24:19.758Z,35.13
2017-04-13T10:25:30.015Z,34.94
2017-04-13T10:26:40.023Z,35.13
2017-04-13T10:27:49.932Z,35.22
2017-04-13T10:28:59.849Z,35.13
2017-04-13T10:30:10.091Z,35.13
2017-04-13T10:31:20.324Z,35.13
2017-04-13T10:32:30.041Z,35.03
2017-04-13T10:33:39.429Z,34.94
2017-04-13T10:34:49.384Z,34.94
2017-04-13T10:35:59.322Z,35.03
2017-04-13T10:37:09.240Z,35.03
2017-04-13T10:38:18.406Z,35.13
2017-04-13T10:39:27.711Z,35.13
2017-04-13T10:40:37.649Z,35.13
2017-04-13T10:41:47.577Z,35.03
2017-04-13T10:42:57.217Z,35.13
2017-04-13T10:44:07.019Z,35.22
2017-04-13T10:45:17.240Z,35.32
2017-04-13T10:46:26.898Z,35.03
2017-04-13T10:47:36.279Z,35.22
2017-04-13T10:48:45.570Z,35.13
2017-04-13T10:49:55.334Z,35.03
2017-04-13T10:51:05.316Z,35.13
2017-04-13T10:52:15.267Z,35.03
2017-04-13T10:53:25.205Z,35.03
2017-04-13T10:54:34.839Z,35.03
2017-04-13T10:55:44.301Z,35.13
2017-04-13T10:56:53.902Z,35.03
2017-04-13T10:58:03.834Z,35.13
2017-04-13T10:59:13.748Z,34.94
2017-04-13T11:00:23.369Z,35.22
2017-04-13T11:01:33.759Z,35.22
2017-04-13T11:02:43.657Z,35.22
2017-04-13T11:03:53.886Z,35.13
2017-04-13T11:05:02.892Z,35.22
2017-04-13T11:06:12.822Z,35.22
2017-04-13T11:07:23.000Z,35.22
2017-04-13T11:08:32.949Z,35.13
2017-04-13T11:09:42.570Z,35.13
2017-04-13T11:10:52.492Z,35.22
2017-04-13T11:12:02.163Z,35.03
2017-04-13T11:13:12.591Z,35.03
2017-04-13T11:14:22.514Z,35.22
2017-04-13T11:15:32.440Z,35.22
2017-04-13T11:16:42.673Z,35.22
2017-04-13T11:17:52.612Z,35.32
2017-04-13T11:19:03.012Z,34.74
2017-04-13T11:20:13.254Z,34.64
2017-04-13T11:21:23.159Z,34.56
2017-04-13T11:22:33.071Z,34.45
2017-04-13T11:23:43.340Z,34.38
2017-04-13T11:24:53.132Z,34.38
2017-04-13T11:26:03.391Z,34.76
2017-04-13T11:27:13.377Z,34.18
2017-04-13T11:28:23.334Z,34.28
2017-04-13T11:29:32.946Z,34.47
2017-04-13T11:30:42.728Z,34.38
2017-04-13T11:31:52.338Z,34.76
2017-04-13T11:33:02.253Z,34.28
2017-04-13T11:34:12.191Z,34.18
2017-04-13T11:35:21.516Z,34.47
2017-04-13T11:36:31.379Z,34.47
2017-04-13T11:37:40.983Z,34.47
2017-04-13T11:38:50.909Z,34.47
2017-04-13T11:40:01.132Z,34.47
2017-04-13T11:41:11.049Z,34.47
2017-04-13T11:42:21.421Z,34.28
2017-04-13T11:43:31.023Z,34.66
2017-04-13T11:44:40.633Z,34.56
2017-04-13T11:45:50.547Z,34.56
2017-04-13T11:47:00.167Z,34.28
2017-04-13T11:48:09.927Z,34.38
2017-04-13T11:49:19.541Z,34.28
2017-04-13T11:50:29.164Z,34.56
2017-04-13T11:51:38.494Z,34.38
2017-04-13T11:52:48.112Z,34.47
2017-04-13T11:53:58.184Z,34.95
2017-04-13T11:55:08.105Z,34.28
2017-04-13T11:56:17.704Z,34.38
2017-04-13T11:57:27.311Z,35.24
2017-04-13T11:58:37.226Z,34.56
2017-04-13T11:59:47.290Z,34.47
2017-04-13T12:00:57.207Z,34.38
2017-04-13T12:02:06.819Z,34.86
2017-04-13T12:03:16.763Z,34.38
2017-04-13T12:04:26.680Z,34.28
2017-04-13T12:05:35.784Z,34.47
2017-04-13T12:06:46.005Z,34.66
2017-04-13T12:07:55.308Z,34.66
2017-04-13T12:09:04.923Z,34.66
2017-04-13T12:10:14.275Z,34.28
2017-04-13T12:11:24.010Z,34.47
2017-04-13T12:12:33.926Z,34.38
2017-04-13T12:13:43.842Z,34.38
2017-04-13T12:14:53.763Z,34.47
2017-04-13T12:16:03.079Z,34.56
2017-04-13T12:17:13.405Z,34.47
2017-04-13T12:18:23.346Z,34.47
2017-04-13T12:19:32.959Z,34.56
2017-04-13T12:20:42.253Z,34.56
2017-04-13T12:21:51.868Z,34.47
2017-04-13T12:23:01.882Z,34.56
2017-04-13T12:24:11.805Z,34.28
2017-04-13T12:25:21.134Z,34.18
2017-04-13T12:26:31.343Z,34.28
2017-04-13T12:27:41.253Z,34.28
2017-04-13T12:28:51.272Z,34.18
2017-04-13T12:30:01.195Z,34.28
2017-04-13T12:31:11.120Z,34.28
2017-04-13T12:32:21.044Z,34.28
2017-04-13T12:33:30.342Z,34.18
2017-04-13T12:34:40.357Z,34.28
2017-04-13T12:35:50.269Z,34.18
2017-04-13T12:36:59.874Z,34.47
2017-04-13T12:38:09.166Z,34.47
2017-04-13T12:39:19.125Z,34.47
2017-04-13T12:40:29.167Z,34.47
2017-04-13T12:41:38.770Z,34.47
2017-04-13T12:42:48.387Z,34.38
2017-04-13T12:43:58.604Z,34.38
2017-04-13T12:45:08.816Z,34.56
2017-04-13T12:46:18.829Z,34.47
2017-04-13T12:47:28.775Z,34.47
2017-04-13T12:48:38.433Z,34.28
2017-04-13T12:49:48.208Z,34.38
2017-04-13T12:50:58.136Z,34.47
2017-04-13T12:52:08.139Z,34.56
2017-04-13T12:53:18.050Z,34.28
2017-04-13T12:54:27.657Z,34.38
2017-04-13T12:55:37.880Z,34.28
2017-04-13T12:56:47.803Z,34.18
2017-04-13T12:57:57.820Z,34.18
2017-04-13T12:59:07.632Z,34.28
2017-04-13T13:00:17.886Z,34.28
2017-04-13T13:01:27.567Z,34.38
2017-04-13T13:02:36.863Z,34.28
2017-04-13T13:03:46.861Z,34.28
2017-04-13T13:04:57.103Z,34.28
2017-04-13T13:06:07.032Z,34.38
2017-04-13T13:07:16.629Z,34.28
2017-04-13T13:08:26.539Z,34.28
2017-04-13T13:09:36.711Z,34.18
2017-04-13T13:10:46.023Z,34.38
2017-04-13T13:11:55.933Z,34.28
2017-04-13T13:13:05.564Z,34.18
2017-04-13T13:14:14.857Z,34.28
2017-04-13T13:15:24.552Z,34.28
2017-04-13T13:16:34.462Z,34.56
2017-04-13T13:17:44.374Z,34.38
2017-04-13T13:18:53.677Z,34.47
2017-04-13T13:20:04.275Z,34.38
2017-04-13T13:21:13.978Z,34.18
2017-04-13T13:22:23.890Z,34.38
2017-04-13T13:23:34.110Z,34.66
2017-04-13T13:24:44.013Z,34.66
2017-04-13T13:25:54.293Z,34.76
2017-04-13T13:27:04.303Z,34.76
2017-04-13T13:28:13.609Z,34.76
2017-04-13T13:29:23.534Z,34.76
2017-04-13T13:30:33.444Z,34.36
2017-04-13T13:31:43.414Z,34.76
2017-04-13T13:32:53.748Z,34.28
2017-04-13T13:34:03.651Z,34.36
2017-04-13T13:35:13.874Z,34.66
2017-04-13T13:36:24.086Z,34.74
2017-04-13T13:37:33.391Z,34.74
2017-04-13T13:38:43.409Z,34.76
2017-04-13T13:39:52.425Z,34.66
2017-04-13T13:41:02.360Z,34.18
2017-04-13T13:42:12.278Z,34.66
2017-04-13T13:43:21.923Z,34.16
2017-04-13T13:44:31.330Z,34.36
2017-04-13T13:45:40.653Z,34.38
2017-04-13T13:46:50.574Z,34.28
2017-04-13T13:48:00.183Z,34.56
2017-04-13T13:49:09.278Z,34.47
2017-04-13T13:50:19.306Z,33.98
2017-04-13T13:51:28.920Z,33.98
2017-04-13T13:52:38.839Z,34.56
2017-04-13T13:53:48.149Z,34.28
2017-04-13T13:54:58.382Z,34.18
2017-04-13T13:56:07.777Z,34.28
2017-04-13T13:57:17.110Z,34.28
2017-04-13T13:58:27.014Z,34.28
2017-04-13T13:59:36.625Z,34.47
2017-04-13T14:00:46.586Z,34.38
2017-04-13T14:01:56.899Z,34.47
2017-04-13T14:03:06.820Z,34.47
2017-04-13T14:04:16.433Z,34.47
2017-04-13T14:05:26.026Z,34.56
2017-04-13T14:06:35.678Z,33.98
2017-04-13T14:07:46.057Z,34.38
2017-04-13T14:08:56.278Z,33.98
2017-04-13T14:10:05.270Z,33.8
2017-04-13T14:11:14.877Z,34.38
2017-04-13T14:12:24.166Z,34.28
2017-04-13T14:13:34.175Z,34.38
2017-04-13T14:14:43.794Z,34.38
2017-04-13T14:15:53.105Z,34.18
2017-04-13T14:17:03.022Z,34.28
2017-04-13T14:18:12.628Z,34.18
2017-04-13T14:19:22.632Z,34.18
2017-04-13T14:20:32.241Z,34.28
2017-04-13T14:21:41.841Z,34.28
2017-04-13T14:22:51.760Z,34.16
2017-04-13T14:24:02.000Z,34.28
2017-04-13T14:25:12.004Z,34.28
2017-04-13T14:26:21.613Z,34.18
2017-04-13T14:27:31.517Z,34.18
2017-04-13T14:28:41.743Z,34.28
2017-04-13T14:29:51.676Z,34.28
2017-04-13T14:31:01.728Z,34.28
2017-04-13T14:32:11.640Z,34.18
2017-04-13T14:33:21.882Z,34.18
2017-04-13T14:34:31.805Z,34.18
2017-04-13T14:35:41.402Z,34.18
2017-04-13T14:36:51.229Z,34.28
2017-04-13T14:38:01.575Z,34.28
2017-04-13T14:39:11.202Z,34.28
2017-04-13T14:40:20.513Z,34.28
2017-04-13T14:41:30.773Z,34.28
2017-04-13T14:42:40.550Z,34.18
2017-04-13T14:43:50.455Z,34.28
2017-04-13T14:45:00.069Z,34.28
2017-04-13T14:46:09.977Z,34.18
2017-04-13T14:47:19.893Z,34.28
2017-04-13T14:48:29.643Z,34.28
2017-04-13T14:49:39.564Z,34.18
2017-04-13T14:50:49.477Z,34.18
2017-04-13T14:51:59.082Z,34.18
2017-04-13T14:53:09.243Z,34.28
2017-04-13T14:54:19.195Z,34.28
2017-04-13T14:55:28.789Z,34.18
2017-04-13T14:56:39.019Z,34.28
2017-04-13T14:57:48.938Z,34.18
2017-04-13T14:58:58.854Z,34.38
2017-04-13T15:00:09.231Z,34.28
2017-04-13T15:01:19.456Z,33.98